createdAt,value
2022-09-26T00:04:59.273Z,11.2
2022-09-26T00:20:08.378Z,11.2
2022-09-26T00:35:17.741Z,11.1
2022-09-26T00:50:28.327Z,11.1
2022-09-26T01:05:38.874Z,11.1
2022-09-26T01:20:48.179Z,11.2
2022-09-26T01:35:58.223Z,11.2
2022-09-26T01:51:07.604Z,11.2
2022-09-26T02:06:16.798Z,11.2
2022-09-26T02:21:26.285Z,11.2
2022-09-26T02:36:35.606Z,11.1
2022-09-26T02:51:45.641Z,11.1
2022-09-26T03:06:57.718Z,11.1
2022-09-26T03:22:07.451Z,11
2022-09-26T03:37:16.453Z,11
2022-09-26T03:52:25.791Z,11
2022-09-26T04:07:35.282Z,11
2022-09-26T04:22:44.926Z,10.9
2022-09-26T04:37:56.769Z,11
2022-09-26T04:53:06.143Z,11
2022-09-26T05:08:15.611Z,10.9
2022-09-26T05:23:25.167Z,10.9
2022-09-26T05:38:34.877Z,11
2022-09-26T05:53:44.458Z,11.1
2022-09-26T06:08:57.424Z,11.2
2022-09-26T06:24:06.845Z,11.3
2022-09-26T06:39:16.736Z,11.5
2022-09-26T06:54:27.203Z,11.7
2022-09-26T07:09:36.944Z,11.9
2022-09-26T07:24:47.391Z,12.1
2022-09-26T07:40:01.542Z,12.3
2022-09-26T07:55:11.666Z,12.6
2022-09-26T08:11:49.513Z,13.4
2022-09-26T08:27:00.339Z,12.9
2022-09-26T08:42:10.428Z,13
2022-09-26T08:57:20.259Z,13.2
2022-09-26T09:12:32.208Z,13.3
2022-09-26T09:28:01.398Z,13.4
2022-09-26T09:43:18.822Z,13.5
2022-09-26T09:58:28.608Z,13.6
2022-09-26T10:13:38.584Z,13.8
2022-09-26T10:28:47.809Z,13.8
2022-09-26T10:43:58.622Z,13.8
2022-09-26T10:59:08.682Z,13.8
2022-09-26T11:14:17.886Z,13.7
2022-09-26T11:29:27.479Z,13.8
2022-09-26T11:44:37.287Z,13.7
2022-09-26T11:59:47.236Z,13.4
2022-09-26T12:14:59.218Z,13.3
2022-09-26T12:30:09.168Z,13.3
2022-09-26T12:45:19.441Z,13.3
2022-09-26T13:00:29.069Z,13.3
2022-09-26T13:15:38.474Z,13.4
2022-09-26T13:30:48.317Z,13.3
2022-09-26T13:45:58.626Z,13.1
2022-09-26T14:01:08.499Z,13
2022-09-26T14:16:18.161Z,12.9
2022-09-26T14:31:28.431Z,12.9
2022-09-26T14:46:39.037Z,12.8
2022-09-26T15:01:48.597Z,12.8
2022-09-26T15:16:59.229Z,12.9
2022-09-26T15:32:08.999Z,12.9
2022-09-26T15:47:18.343Z,12.9
2022-09-26T16:02:28.389Z,12.9
2022-09-26T16:17:37.909Z,12.8
2022-09-26T16:32:47.573Z,12.7
2022-09-26T16:47:58.997Z,12.7
2022-09-26T17:03:08.871Z,12.5
2022-09-26T17:18:18.125Z,12.4
2022-09-26T17:33:27.929Z,12.4
2022-09-26T17:48:37.272Z,12.4
2022-09-26T18:03:46.690Z,12.3
2022-09-26T18:19:02.130Z,12.4
2022-09-26T18:34:17.176Z,12.4
2022-09-26T18:49:26.588Z,12.2
2022-09-26T19:04:36.182Z,12
2022-09-26T19:19:45.722Z,11.9
2022-09-26T19:34:54.828Z,11.8
2022-09-26T19:50:04.668Z,11.7
2022-09-26T20:05:14.698Z,11.7
2022-09-26T20:20:24.399Z,11.8
2022-09-26T20:35:35.575Z,11.7
2022-09-26T20:50:45.380Z,11.7
2022-09-26T21:05:54.566Z,11.7
2022-09-26T21:21:04.319Z,11.7
2022-09-26T21:36:14.290Z,11.7
2022-09-26T21:51:23.864Z,11.8
2022-09-26T22:06:33.541Z,11.7
2022-09-26T22:21:42.436Z,11.5
2022-09-26T22:36:51.370Z,11.4
2022-09-26T22:52:00.474Z,11.2
2022-09-26T23:07:09.713Z,11.3
2022-09-26T23:22:50.251Z,11.4
2022-09-26T23:38:00.587Z,11.3
2022-09-26T23:53:10.426Z,11.3
